createdAt,value
2022-10-23T00:00:37.740Z,0.00
2022-10-23T00:01:37.631Z,0.00
2022-10-23T00:02:37.648Z,0.00
2022-10-23T00:03:37.543Z,0.00
2022-10-23T00:04:37.578Z,0.00
2022-10-23T00:05:37.464Z,0.00
2022-10-23T00:06:37.421Z,0.00
2022-10-23T00:07:37.369Z,0.00
2022-10-23T00:08:37.331Z,0.00
2022-10-23T00:09:37.285Z,0.00
2022-10-23T00:10:37.252Z,0.00
2022-10-23T00:11:37.200Z,0.00
2022-10-23T00:12:37.157Z,0.00
2022-10-23T00:13:37.116Z,0.00
2022-10-23T00:14:37.103Z,0.00
2022-10-23T00:15:37.023Z,0.00
2022-10-23T00:16:36.987Z,0.00
2022-10-23T00:17:36.937Z,0.00
2022-10-23T00:18:36.912Z,0.00
2022-10-23T00:19:36.867Z,0.00
2022-10-23T00:20:36.820Z,0.00
2022-10-23T00:21:36.838Z,0.00
2022-10-23T00:22:36.743Z,0.00
2022-10-23T00:23:36.684Z,0.00
2022-10-23T00:24:36.645Z,0.00
2022-10-23T00:25:36.592Z,0.00
2022-10-23T00:26:36.551Z,0.00
2022-10-23T00:27:36.548Z,0.00
2022-10-23T00:28:36.467Z,0.00
2022-10-23T00:29:36.418Z,0.00
2022-10-23T00:30:36.379Z,0.00
2022-10-23T00:31:36.335Z,0.00
2022-10-23T00:32:36.297Z,0.00
2022-10-23T00:33:36.266Z,0.00
2022-10-23T00:34:36.229Z,0.00
2022-10-23T00:35:36.167Z,0.00
2022-10-23T00:36:36.121Z,0.00
2022-10-23T00:37:36.093Z,0.00
2022-10-23T00:38:36.033Z,0.00
2022-10-23T00:39:36.002Z,0.00
2022-10-23T00:40:36.160Z,0.00
2022-10-23T00:41:35.915Z,0.00
2022-10-23T00:42:35.862Z,0.00
2022-10-23T00:43:35.818Z,0.00
2022-10-23T00:44:35.767Z,0.00
2022-10-23T00:45:35.729Z,0.00
2022-10-23T00:46:35.885Z,0.00
2022-10-23T00:47:35.647Z,0.00
2022-10-23T00:48:35.602Z,0.00
2022-10-23T00:49:36.088Z,0.00
2022-10-23T00:50:35.513Z,0.00
2022-10-23T00:51:35.466Z,0.00
2022-10-23T00:52:35.473Z,0.00
2022-10-23T00:53:35.382Z,0.00
2022-10-23T00:54:35.339Z,0.00
2022-10-23T00:55:35.297Z,0.00
2022-10-23T00:56:35.256Z,0.00
2022-10-23T00:57:35.261Z,0.00
2022-10-23T00:58:35.206Z,0.00
2022-10-23T00:59:35.117Z,0.00
2022-10-23T01:00:35.125Z,0.00
2022-10-23T01:01:35.156Z,0.00
2022-10-23T01:02:35.079Z,0.00
2022-10-23T01:03:34.983Z,0.00
2022-10-23T01:04:34.916Z,0.00
2022-10-23T01:05:34.893Z,0.00
2022-10-23T01:06:34.824Z,0.00
2022-10-23T01:07:34.809Z,0.00
2022-10-23T01:08:34.727Z,0.00
2022-10-23T01:09:34.684Z,0.00
2022-10-23T01:10:34.644Z,0.00
2022-10-23T01:11:34.607Z,0.00
2022-10-23T01:12:34.554Z,0.00
2022-10-23T01:13:34.523Z,0.00
2022-10-23T01:14:34.467Z,0.00
2022-10-23T01:15:34.421Z,0.00
2022-10-23T01:16:34.381Z,0.00
2022-10-23T01:17:34.366Z,0.00
2022-10-23T01:18:34.294Z,0.00
2022-10-23T01:19:34.252Z,0.00
2022-10-23T01:20:34.208Z,0.00
2022-10-23T01:21:34.182Z,0.00
2022-10-23T01:22:34.117Z,0.00
2022-10-23T01:23:34.085Z,0.00
2022-10-23T01:24:34.035Z,0.00
2022-10-23T01:25:33.993Z,0.00
2022-10-23T01:26:33.947Z,0.00
2022-10-23T01:27:33.940Z,0.00
2022-10-23T01:28:33.870Z,0.00
2022-10-23T01:29:33.855Z,0.00
2022-10-23T01:30:33.787Z,0.00
2022-10-23T01:31:33.723Z,0.00
2022-10-23T01:32:33.684Z,0.00
2022-10-23T01:33:33.640Z,0.00
2022-10-23T01:34:33.603Z,0.00
2022-10-23T01:35:33.547Z,0.00
2022-10-23T01:36:33.505Z,0.00
2022-10-23T01:37:33.475Z,0.00
2022-10-23T01:38:33.415Z,0.00
2022-10-23T01:39:33.376Z,0.00
2022-10-23T01:40:33.331Z,0.00
2022-10-23T01:41:33.287Z,0.00
2022-10-23T01:42:33.263Z,0.00
2022-10-23T01:43:33.197Z,0.00
2022-10-23T01:44:33.154Z,0.00
2022-10-23T01:45:33.114Z,0.00
2022-10-23T01:46:33.069Z,0.00
2022-10-23T01:47:33.022Z,0.00
2022-10-23T01:48:33.001Z,0.00
2022-10-23T01:49:32.936Z,0.00
2022-10-23T01:50:32.891Z,0.00
2022-10-23T01:51:32.847Z,0.00
2022-10-23T01:52:32.806Z,0.00
2022-10-23T01:53:32.764Z,0.00
2022-10-23T01:54:32.735Z,0.00
2022-10-23T01:55:32.710Z,0.00
2022-10-23T01:56:32.630Z,0.00
2022-10-23T01:57:32.584Z,0.00
2022-10-23T01:58:32.544Z,0.00
2022-10-23T01:59:32.496Z,0.00
2022-10-23T02:00:32.482Z,0.00
2022-10-23T02:01:32.553Z,0.00
2022-10-23T02:02:32.427Z,0.00
2022-10-23T02:03:32.322Z,0.00
2022-10-23T02:04:32.283Z,0.00
2022-10-23T02:05:32.236Z,0.00
2022-10-23T02:06:32.217Z,0.00
2022-10-23T02:07:32.148Z,0.00
2022-10-23T02:08:32.110Z,0.00
2022-10-23T02:09:32.060Z,0.00
2022-10-23T02:10:32.017Z,0.00
2022-10-23T02:11:31.975Z,0.00
2022-10-23T02:12:32.043Z,0.00
2022-10-23T02:13:31.884Z,0.00
2022-10-23T02:14:31.843Z,0.00
2022-10-23T02:15:31.801Z,0.00
2022-10-23T02:16:31.760Z,0.00
2022-10-23T02:17:31.711Z,0.00
2022-10-23T02:18:31.697Z,0.00
2022-10-23T02:19:31.622Z,0.00
2022-10-23T02:20:31.599Z,0.00
2022-10-23T02:21:31.540Z,0.00
2022-10-23T02:22:31.490Z,0.00
2022-10-23T02:23:31.451Z,0.00
2022-10-23T02:24:31.420Z,0.00
2022-10-23T02:25:31.363Z,0.00
2022-10-23T02:26:31.317Z,0.00
2022-10-23T02:27:31.273Z,0.00
2022-10-23T02:28:31.259Z,0.00
2022-10-23T02:29:31.186Z,0.00
2022-10-23T02:30:31.143Z,0.00
2022-10-23T02:31:31.095Z,0.00
2022-10-23T02:32:31.054Z,0.00
2022-10-23T02:33:31.010Z,0.00
2022-10-23T02:34:30.998Z,0.00
2022-10-23T02:35:30.925Z,0.00
2022-10-23T02:36:30.881Z,0.00
2022-10-23T02:37:30.834Z,0.00
2022-10-23T02:38:30.791Z,0.00
2022-10-23T02:39:30.748Z,0.00
2022-10-23T02:40:30.717Z,0.00
2022-10-23T02:41:30.664Z,0.00
2022-10-23T02:42:30.618Z,0.00
2022-10-23T02:43:30.576Z,0.00
2022-10-23T02:44:30.536Z,0.00
2022-10-23T02:45:30.541Z,0.00
2022-10-23T02:46:30.461Z,0.00
2022-10-23T02:47:30.395Z,0.00
2022-10-23T02:48:30.353Z,0.00
2022-10-23T02:49:30.309Z,0.00
2022-10-23T02:50:30.265Z,0.00
2022-10-23T02:51:30.220Z,0.00
2022-10-23T02:52:30.355Z,0.00
2022-10-23T02:53:30.134Z,0.00
2022-10-23T02:54:30.091Z,0.00
2022-10-23T02:55:30.041Z,0.00
2022-10-23T02:56:30.004Z,0.00
2022-10-23T02:57:29.959Z,0.00
2022-10-23T02:58:29.938Z,0.00
2022-10-23T02:59:29.866Z,0.00
2022-10-23T03:00:29.841Z,0.00
2022-10-23T03:01:29.893Z,0.00
2022-10-23T03:02:29.767Z,0.00
2022-10-23T03:03:29.690Z,0.00
2022-10-23T03:04:29.663Z,0.00
2022-10-23T03:05:29.606Z,0.00
2022-10-23T03:06:29.561Z,0.00
2022-10-23T03:07:29.517Z,0.00
2022-10-23T03:08:29.475Z,0.00
2022-10-23T03:09:29.431Z,0.00
2022-10-23T03:10:29.416Z,0.00
2022-10-23T03:11:29.339Z,0.00
2022-10-23T03:12:29.300Z,0.00
2022-10-23T03:13:29.246Z,0.00
2022-10-23T03:14:29.211Z,0.00
2022-10-23T03:15:29.164Z,0.00
2022-10-23T03:16:29.138Z,0.00
2022-10-23T03:17:29.076Z,0.00
2022-10-23T03:18:29.034Z,0.00
2022-10-23T03:19:28.988Z,0.00
2022-10-23T03:20:28.946Z,0.00
2022-10-23T03:21:28.900Z,0.00
2022-10-23T03:22:28.891Z,0.00
2022-10-23T03:23:28.811Z,0.00
2022-10-23T03:24:28.774Z,0.00
2022-10-23T03:25:28.726Z,0.00
2022-10-23T03:26:28.687Z,0.00
2022-10-23T03:28:28.634Z,0.00
2022-10-23T03:29:28.554Z,0.00
2022-10-23T03:30:28.512Z,0.00
2022-10-23T03:31:28.465Z,0.00
2022-10-23T03:32:28.419Z,0.00
2022-10-23T03:33:28.378Z,0.00
2022-10-23T03:34:28.348Z,0.00
2022-10-23T03:35:28.286Z,0.00
2022-10-23T03:36:28.277Z,0.00
2022-10-23T03:37:28.200Z,0.00
2022-10-23T03:38:28.154Z,0.00
2022-10-23T03:39:28.111Z,0.00
2022-10-23T03:40:28.080Z,0.00
2022-10-23T03:41:28.025Z,0.00
2022-10-23T03:42:27.982Z,0.00
2022-10-23T03:43:27.936Z,0.00
2022-10-23T03:44:27.891Z,0.00
2022-10-23T03:45:27.879Z,0.00
2022-10-23T03:46:27.805Z,0.00
2022-10-23T03:47:27.761Z,0.00
2022-10-23T03:48:27.715Z,0.00
2022-10-23T03:49:27.676Z,0.00
2022-10-23T03:50:27.631Z,0.00
2022-10-23T03:51:27.633Z,0.00
2022-10-23T03:52:27.549Z,0.00
2022-10-23T03:53:27.498Z,0.00
2022-10-23T03:54:27.453Z,0.00
2022-10-23T03:55:27.406Z,0.00
2022-10-23T03:56:27.362Z,0.00
2022-10-23T03:57:27.333Z,0.00
2022-10-23T03:58:27.278Z,0.00
2022-10-23T03:59:27.230Z,0.00
2022-10-23T04:00:27.188Z,0.00
2022-10-23T04:01:27.236Z,0.00
2022-10-23T04:02:27.181Z,0.00
2022-10-23T04:03:27.053Z,0.00
2022-10-23T04:04:27.013Z,0.00
2022-10-23T04:05:26.968Z,0.00
2022-10-23T04:06:26.924Z,0.00
2022-10-23T04:07:26.880Z,0.00
2022-10-23T04:08:26.878Z,0.00
2022-10-23T04:09:26.795Z,0.00
2022-10-23T04:10:26.759Z,0.00
2022-10-23T04:11:26.704Z,0.00
2022-10-23T04:12:26.664Z,0.00
2022-10-23T04:13:26.621Z,0.00
2022-10-23T04:14:26.592Z,0.00
2022-10-23T04:15:26.535Z,0.00
2022-10-23T04:16:26.492Z,0.00
2022-10-23T04:18:26.410Z,0.00
2022-10-23T04:19:26.354Z,0.00
2022-10-23T04:20:26.335Z,0.00
2022-10-23T04:21:26.271Z,0.00
2022-10-23T04:22:28.406Z,0.00
2022-10-23T04:23:26.183Z,0.00
2022-10-23T04:24:26.139Z,0.00
2022-10-23T04:25:26.096Z,0.00
2022-10-23T04:26:26.070Z,0.00
2022-10-23T04:27:26.010Z,0.00
2022-10-23T04:28:25.966Z,0.00
2022-10-23T04:29:25.923Z,0.00
2022-10-23T04:30:25.874Z,0.00
2022-10-23T04:31:25.837Z,0.00
2022-10-23T04:32:25.803Z,0.00
2022-10-23T04:33:25.751Z,0.00
2022-10-23T04:34:25.711Z,0.00
2022-10-23T04:35:25.663Z,0.00
2022-10-23T04:36:25.616Z,0.00
2022-10-23T04:37:25.605Z,0.00
2022-10-23T04:38:25.532Z,0.00
2022-10-23T04:39:25.483Z,0.00
2022-10-23T04:40:25.445Z,0.00
2022-10-23T04:41:25.411Z,0.00
2022-10-23T04:43:25.360Z,0.00
2022-10-23T04:44:25.268Z,0.00
2022-10-23T04:45:25.229Z,0.00
2022-10-23T04:46:25.184Z,0.00
2022-10-23T04:47:25.135Z,0.00
2022-10-23T04:48:27.080Z,0.00
2022-10-23T04:49:25.077Z,0.00
2022-10-23T04:50:25.003Z,0.00
2022-10-23T04:51:24.964Z,0.00
2022-10-23T04:52:24.918Z,0.00
2022-10-23T04:53:24.879Z,0.00
2022-10-23T04:54:24.833Z,0.00
2022-10-23T04:55:24.817Z,0.00
2022-10-23T04:56:24.744Z,0.00
2022-10-23T04:57:24.703Z,0.00
2022-10-23T04:58:24.660Z,0.00
2022-10-23T04:59:24.615Z,0.00
2022-10-23T05:00:24.575Z,0.00
2022-10-23T05:01:24.627Z,0.00
2022-10-23T05:02:24.488Z,0.00
2022-10-23T05:03:24.442Z,0.00
2022-10-23T05:04:24.398Z,0.00
2022-10-23T05:05:24.356Z,0.00
2022-10-23T05:06:24.311Z,0.00
2022-10-23T05:07:24.301Z,0.00
2022-10-23T05:08:24.227Z,0.00
2022-10-23T05:09:24.184Z,0.00
2022-10-23T05:10:24.138Z,0.00
2022-10-23T05:11:24.096Z,0.00
2022-10-23T05:12:24.051Z,0.00
2022-10-23T05:13:24.061Z,0.00
2022-10-23T05:14:23.963Z,0.00
2022-10-23T05:15:23.916Z,0.00
2022-10-23T05:16:23.878Z,0.00
2022-10-23T05:17:23.834Z,0.00
2022-10-23T05:18:23.790Z,0.00
2022-10-23T05:19:24.398Z,0.00
2022-10-23T05:20:23.701Z,0.00
2022-10-23T05:21:23.659Z,0.00
2022-10-23T05:22:23.625Z,0.00
2022-10-23T05:23:23.570Z,0.00
2022-10-23T05:24:23.526Z,0.00
2022-10-23T05:25:23.481Z,0.00
2022-10-23T05:26:23.437Z,0.00
2022-10-23T05:27:23.395Z,0.00
2022-10-23T05:28:23.368Z,0.00
2022-10-23T05:29:23.310Z,0.00
2022-10-23T05:30:23.264Z,0.00
2022-10-23T05:31:23.228Z,4.00
2022-10-23T05:32:23.179Z,4.00
2022-10-23T05:33:23.130Z,4.00
2022-10-23T05:34:23.104Z,4.00
2022-10-23T05:35:23.043Z,8.00
2022-10-23T05:36:22.998Z,4.00
2022-10-23T05:37:22.959Z,12.00
2022-10-23T05:38:22.909Z,12.00
2022-10-23T05:39:22.866Z,16.00
2022-10-23T05:40:22.844Z,20.00
2022-10-23T05:41:22.783Z,20.00
2022-10-23T05:42:22.735Z,24.00
2022-10-23T05:43:22.690Z,28.00
2022-10-23T05:44:22.643Z,36.00
2022-10-23T05:45:22.610Z,40.00
2022-10-23T05:46:22.577Z,40.00
2022-10-23T05:47:22.510Z,40.00
2022-10-23T05:48:33.596Z,52.00
2022-10-23T05:49:22.461Z,64.00
2022-10-23T05:50:22.387Z,72.00
2022-10-23T05:51:22.407Z,88.00
2022-10-23T05:52:22.294Z,100.00
2022-10-23T05:53:22.258Z,112.00
2022-10-23T05:54:22.206Z,128.00
2022-10-23T05:55:22.197Z,148.00
2022-10-23T05:56:22.123Z,164.00
2022-10-23T05:57:22.084Z,188.00
2022-10-23T05:58:22.033Z,212.00
2022-10-23T05:59:23.172Z,224.00
2022-10-23T06:03:47.101Z,264.00
2022-10-23T06:04:46.874Z,296.00
2022-10-23T06:05:47.084Z,352.00
2022-10-23T06:06:46.780Z,408.00
2022-10-23T06:07:47.038Z,412.00
2022-10-23T06:08:46.691Z,396.00
2022-10-23T06:09:46.821Z,436.00
2022-10-23T06:10:47.717Z,444.00
2022-10-23T06:11:46.610Z,476.00
2022-10-23T06:12:46.713Z,532.00
2022-10-23T06:13:46.486Z,612.00
2022-10-23T06:14:46.728Z,692.00
2022-10-23T06:15:46.385Z,756.00
2022-10-23T06:16:47.556Z,804.00
2022-10-23T06:17:46.416Z,840.00
2022-10-23T06:18:46.442Z,876.00
2022-10-23T06:19:46.197Z,932.00
2022-10-23T06:20:47.280Z,996.00
2022-10-23T06:21:46.118Z,1088.00
2022-10-23T06:22:47.500Z,1256.00
2022-10-23T06:23:46.026Z,1260.00
2022-10-23T06:24:46.086Z,1208.00
2022-10-23T06:25:45.937Z,1280.00
2022-10-23T06:26:45.890Z,1356.00
2022-10-23T06:27:45.860Z,1388.00
2022-10-23T06:28:45.903Z,1520.00
2022-10-23T06:29:45.759Z,1504.00
2022-10-23T06:30:46.939Z,1276.00
2022-10-23T06:31:45.723Z,1288.00
2022-10-23T06:32:45.836Z,1300.00
2022-10-23T06:33:46.656Z,1380.00
2022-10-23T06:34:45.540Z,1640.00
2022-10-23T06:35:45.760Z,1400.00
2022-10-23T06:36:45.449Z,1280.00
2022-10-23T06:37:45.608Z,1352.00
2022-10-23T06:38:45.367Z,1412.00
2022-10-23T06:39:45.467Z,1516.00
2022-10-23T06:40:45.281Z,1668.00
2022-10-23T06:41:45.486Z,1956.00
2022-10-23T06:42:45.423Z,1796.00
2022-10-23T06:43:45.171Z,1884.00
2022-10-23T06:44:45.106Z,2024.00
2022-10-23T06:45:46.134Z,2168.00
2022-10-23T06:46:45.013Z,2372.00
2022-10-23T06:47:45.401Z,2576.00
2022-10-23T06:48:44.930Z,2792.00
2022-10-23T06:49:45.132Z,2668.00
2022-10-23T06:50:44.859Z,2408.00
2022-10-23T06:51:44.943Z,2872.00
2022-10-23T06:52:47.393Z,3608.00
2022-10-23T06:53:44.873Z,3136.00
2022-10-23T06:54:45.897Z,3324.00
2022-10-23T06:55:44.624Z,4520.00
2022-10-23T06:56:44.772Z,3132.00
2022-10-23T06:57:44.779Z,2588.00
2022-10-23T06:58:44.580Z,2400.00
2022-10-23T06:59:44.639Z,2620.00
2022-10-23T07:00:44.440Z,2864.00
2022-10-23T07:01:44.750Z,3012.00
2022-10-23T07:02:44.463Z,3364.00
2022-10-23T07:03:44.417Z,3560.00
2022-10-23T07:04:44.234Z,3656.00
2022-10-23T07:05:44.241Z,3284.00
2022-10-23T07:06:44.143Z,3296.00
2022-10-23T07:07:44.447Z,3488.00
2022-10-23T07:08:44.060Z,3548.00
2022-10-23T07:09:44.269Z,3432.00
2022-10-23T07:10:43.978Z,3356.00
2022-10-23T07:11:43.931Z,3636.00
2022-10-23T07:12:44.386Z,4824.00
2022-10-23T07:13:43.869Z,6712.00
2022-10-23T07:14:43.989Z,7524.00
2022-10-23T07:15:43.852Z,8096.00
2022-10-23T07:16:43.715Z,7128.00
2022-10-23T07:17:43.689Z,7144.00
2022-10-23T07:18:43.913Z,8216.00
2022-10-23T07:19:45.819Z,9448.00
2022-10-23T07:20:43.763Z,6948.00
2022-10-23T07:21:43.559Z,5860.00
2022-10-23T07:22:43.674Z,5628.00
2022-10-23T07:23:43.413Z,5224.00
2022-10-23T07:24:43.609Z,5640.00
2022-10-23T07:25:43.354Z,5920.00
2022-10-23T07:26:43.380Z,6280.00
2022-10-23T07:27:43.476Z,4904.00
2022-10-23T07:28:43.363Z,6664.00
2022-10-23T07:29:43.389Z,10604.00
2022-10-23T07:30:43.106Z,9616.00
2022-10-23T07:31:44.415Z,6196.00
2022-10-23T07:32:43.126Z,5252.00
2022-10-23T07:33:42.977Z,7748.00
2022-10-23T07:34:42.959Z,10296.00
2022-10-23T07:35:43.126Z,11712.00
2022-10-23T07:36:42.923Z,11136.00
2022-10-23T07:37:43.377Z,10628.00
2022-10-23T07:38:42.760Z,12852.00
2022-10-23T07:39:42.719Z,14356.00
2022-10-23T07:40:42.675Z,11156.00
2022-10-23T07:41:42.745Z,8664.00
2022-10-23T07:42:42.585Z,10096.00
2022-10-23T07:44:05.906Z,12476.00
2022-10-23T07:44:42.508Z,14676.00
2022-10-23T07:45:42.457Z,12076.00
2022-10-23T07:46:43.599Z,9552.00
2022-10-23T07:47:42.635Z,11272.00
2022-10-23T07:48:44.541Z,10872.00
2022-10-23T07:49:42.320Z,9020.00
2022-10-23T07:50:43.485Z,8880.00
2022-10-23T07:51:42.226Z,14448.00
2022-10-23T07:53:04.243Z,11508.00
2022-10-23T07:53:42.120Z,10980.00
2022-10-23T07:54:42.108Z,10092.00
2022-10-23T07:55:42.161Z,9576.00
2022-10-23T07:56:42.248Z,9004.00
2022-10-23T07:57:41.959Z,6860.00
2022-10-23T07:58:42.057Z,6552.00
2022-10-23T07:59:41.958Z,7316.00
2022-10-23T08:00:43.507Z,8124.00
2022-10-23T08:01:41.898Z,7680.00
2022-10-23T08:02:41.968Z,6828.00
2022-10-23T08:03:41.691Z,8972.00
2022-10-23T08:04:41.893Z,9232.00
2022-10-23T08:05:41.605Z,10216.00
2022-10-23T08:06:41.698Z,12108.00
2022-10-23T08:07:41.566Z,13680.00
2022-10-23T08:08:41.731Z,12768.00
2022-10-23T08:09:41.439Z,7268.00
2022-10-23T08:10:42.552Z,7420.00
2022-10-23T08:11:41.350Z,9960.00
2022-10-23T08:12:43.054Z,13428.00
2022-10-23T08:13:41.299Z,15952.00
2022-10-23T08:14:41.348Z,10180.00
2022-10-23T08:15:41.192Z,7260.00
2022-10-23T08:16:41.362Z,7788.00
2022-10-23T08:17:41.269Z,12060.00
2022-10-23T08:18:42.207Z,11016.00
2022-10-23T08:19:41.381Z,6584.00
2022-10-23T08:20:41.085Z,6900.00
2022-10-23T08:21:40.970Z,9452.00
2022-10-23T08:22:41.305Z,13008.00
2022-10-23T08:23:40.859Z,15260.00
2022-10-23T08:24:40.811Z,12028.00
2022-10-23T08:25:40.810Z,11656.00
2022-10-23T08:26:40.723Z,14656.00
2022-10-23T08:27:40.997Z,17216.00
2022-10-23T08:28:40.657Z,13080.00
2022-10-23T08:29:42.796Z,14088.00
2022-10-23T08:30:40.559Z,19008.00
2022-10-23T08:31:42.904Z,16180.00
2022-10-23T08:32:40.479Z,15984.00
2022-10-23T08:33:40.708Z,16232.00
2022-10-23T08:34:40.394Z,17088.00
2022-10-23T08:35:40.355Z,18432.00
2022-10-23T08:36:40.314Z,18240.00
2022-10-23T08:37:40.716Z,16660.00
2022-10-23T08:38:40.227Z,15876.00
2022-10-23T08:40:01.293Z,17568.00
2022-10-23T08:40:40.146Z,19008.00
2022-10-23T08:41:40.108Z,15808.00
2022-10-23T08:42:40.511Z,15772.00
2022-10-23T08:43:40.188Z,19168.00
2022-10-23T08:44:40.130Z,17504.00
2022-10-23T08:45:39.942Z,17024.00
2022-10-23T08:46:39.905Z,18432.00
2022-10-23T08:47:39.954Z,20096.00
2022-10-23T08:49:01.050Z,20000.00
2022-10-23T08:49:39.780Z,20256.00
2022-10-23T08:50:45.506Z,20320.00
2022-10-23T08:51:39.697Z,20544.00
2022-10-23T08:52:39.657Z,20800.00
2022-10-23T08:53:40.814Z,20992.00
2022-10-23T08:54:39.577Z,21184.00
2022-10-23T08:55:39.596Z,21152.00
2022-10-23T08:56:39.571Z,21344.00
2022-10-23T08:57:42.748Z,21312.00
2022-10-23T08:58:39.448Z,21376.00
2022-10-23T08:59:40.451Z,21760.00
2022-10-23T09:00:39.397Z,21952.00
2022-10-23T09:01:41.614Z,21664.00
2022-10-23T09:02:39.578Z,21504.00
2022-10-23T09:03:39.215Z,21600.00
2022-10-23T09:04:39.169Z,21632.00
2022-10-23T09:05:39.262Z,22336.00
2022-10-23T09:06:39.090Z,24128.00
2022-10-23T09:07:39.277Z,24896.00
2022-10-23T09:08:39.045Z,25216.00
2022-10-23T09:09:38.969Z,26240.00
2022-10-23T09:10:38.928Z,26976.00
2022-10-23T09:11:39.103Z,25632.00
2022-10-23T09:12:38.854Z,26272.00
2022-10-23T09:13:38.904Z,28448.00
2022-10-23T09:14:39.021Z,28480.00
2022-10-23T09:15:38.730Z,27904.00
2022-10-23T09:16:38.936Z,27008.00
2022-10-23T09:17:38.650Z,30720.00
2022-10-23T09:18:38.746Z,38144.00
2022-10-23T09:19:38.608Z,41184.00
2022-10-23T09:20:38.758Z,44384.00
2022-10-23T09:21:38.499Z,38976.00
2022-10-23T09:22:38.568Z,39616.00
2022-10-23T09:23:38.417Z,39904.00
2022-10-23T09:24:39.403Z,37024.00
2022-10-23T09:25:38.455Z,34720.00
2022-10-23T09:26:38.299Z,31776.00
2022-10-23T09:27:38.268Z,32544.00
2022-10-23T09:28:38.413Z,31136.00
2022-10-23T09:29:38.185Z,28000.00
2022-10-23T09:30:39.239Z,28256.00
2022-10-23T09:31:38.149Z,28672.00
2022-10-23T09:32:38.237Z,30688.00
2022-10-23T09:33:38.047Z,35040.00
2022-10-23T09:34:38.140Z,37024.00
2022-10-23T09:35:37.961Z,33568.00
2022-10-23T09:36:38.164Z,33984.00
2022-10-23T09:37:59.259Z,36160.00
2022-10-23T09:38:37.845Z,34976.00
2022-10-23T09:39:37.865Z,33920.00
2022-10-23T09:42:10.856Z,34656.00
2022-10-23T09:43:09.453Z,33440.00
2022-10-23T09:44:09.422Z,34592.00
2022-10-23T09:45:09.715Z,35360.00
2022-10-23T09:46:09.341Z,41312.00
2022-10-23T09:47:09.565Z,52064.00
2022-10-23T09:48:09.349Z,35712.00
2022-10-23T09:49:09.279Z,34080.00
2022-10-23T09:50:09.204Z,50464.00
2022-10-23T09:51:09.390Z,57696.00
2022-10-23T09:52:09.130Z,58336.00
2022-10-23T09:53:09.199Z,63776.00
2022-10-23T09:54:09.050Z,61632.00
2022-10-23T09:55:09.115Z,50400.00
2022-10-23T09:56:09.269Z,45824.00
2022-10-23T09:57:10.147Z,46400.00
2022-10-23T09:58:08.899Z,42080.00
2022-10-23T09:59:09.142Z,47072.00
2022-10-23T10:00:08.833Z,43712.00
2022-10-23T10:01:08.859Z,50912.00
2022-10-23T10:02:08.888Z,46496.00
2022-10-23T10:03:08.965Z,38144.00
2022-10-23T10:04:08.734Z,40384.00
2022-10-23T10:05:08.779Z,41376.00
2022-10-23T10:06:08.632Z,40000.00
2022-10-23T10:07:08.846Z,37952.00
2022-10-23T10:08:08.793Z,34976.00
2022-10-23T10:09:08.515Z,33024.00
2022-10-23T10:10:08.603Z,32576.00
2022-10-23T10:11:08.452Z,29984.00
2022-10-23T10:12:09.652Z,26336.00
2022-10-23T10:13:11.865Z,27104.00
2022-10-23T10:14:08.447Z,26400.00
2022-10-23T10:15:08.301Z,26240.00
2022-10-23T10:16:10.491Z,26912.00
2022-10-23T10:17:08.230Z,27648.00
2022-10-23T10:18:08.357Z,28960.00
2022-10-23T10:19:08.417Z,32224.00
2022-10-23T10:20:08.372Z,34240.00
2022-10-23T10:21:08.092Z,34144.00
2022-10-23T10:22:08.175Z,35232.00
2022-10-23T10:23:09.268Z,36000.00
2022-10-23T10:24:07.987Z,42528.00
2022-10-23T10:25:10.045Z,38528.00
2022-10-23T10:26:07.910Z,29376.00
2022-10-23T10:27:29.931Z,34272.00
2022-10-23T10:28:07.833Z,26944.00
2022-10-23T10:29:07.827Z,26368.00
2022-10-23T10:30:07.758Z,24864.00
2022-10-23T10:31:07.726Z,24928.00
2022-10-23T10:32:29.463Z,23328.00
2022-10-23T10:33:07.957Z,23744.00
2022-10-23T10:34:07.825Z,27488.00
2022-10-23T10:35:08.787Z,32960.00
2022-10-23T10:36:07.577Z,39328.00
2022-10-23T10:37:07.681Z,51744.00
2022-10-23T10:38:07.466Z,60288.00
2022-10-23T10:39:07.689Z,65088.00
2022-10-23T10:40:07.398Z,57696.00
2022-10-23T10:41:07.506Z,54720.00
2022-10-23T10:42:07.320Z,52544.00
2022-10-23T10:43:07.410Z,46336.00
2022-10-23T10:44:07.246Z,50688.00
2022-10-23T10:45:07.424Z,55328.00
2022-10-23T10:46:07.251Z,57376.00
2022-10-23T10:47:07.543Z,59104.00
2022-10-23T10:48:08.377Z,44448.00
2022-10-23T10:49:07.074Z,56064.00
2022-10-23T10:50:08.197Z,51008.00
2022-10-23T10:51:07.000Z,45760.00
2022-10-23T10:52:07.168Z,44544.00
2022-10-23T10:53:06.952Z,42944.00
2022-10-23T10:54:07.236Z,51456.00
2022-10-23T10:55:06.868Z,64192.00
2022-10-23T10:56:07.029Z,66240.00
2022-10-23T10:57:06.790Z,56288.00
2022-10-23T10:58:06.806Z,34336.00
2022-10-23T10:59:06.739Z,64704.00
2022-10-23T11:00:06.732Z,69216.00
2022-10-23T11:01:06.921Z,64576.00
2022-10-23T11:02:06.737Z,59008.00
2022-10-23T11:03:07.867Z,57920.00
2022-10-23T11:04:06.557Z,62176.00
2022-10-23T11:05:08.710Z,59968.00
2022-10-23T11:06:07.731Z,51584.00
2022-10-23T11:07:06.664Z,61696.00
2022-10-23T11:08:06.429Z,43328.00
2022-10-23T11:09:19.777Z,30432.00
2022-10-23T11:10:06.363Z,46912.00
2022-10-23T11:11:07.518Z,54656.00
2022-10-23T11:12:06.310Z,34528.00
2022-10-23T11:13:28.417Z,32064.00
2022-10-23T11:14:06.234Z,32672.00
2022-10-23T11:15:06.321Z,35904.00
2022-10-23T11:16:06.166Z,36608.00
2022-10-23T11:17:08.381Z,44512.00
2022-10-23T11:18:06.101Z,57984.00
2022-10-23T11:19:11.248Z,40640.00
2022-10-23T11:20:06.028Z,31200.00
2022-10-23T11:21:06.263Z,32416.00
2022-10-23T11:22:05.966Z,34432.00
2022-10-23T11:23:06.478Z,31904.00
2022-10-23T11:24:05.948Z,34208.00
2022-10-23T11:25:07.107Z,37120.00
2022-10-23T11:26:05.831Z,43776.00
2022-10-23T11:27:06.921Z,45632.00
2022-10-23T11:28:10.173Z,50400.00
2022-10-23T11:29:05.748Z,53952.00
2022-10-23T11:30:05.690Z,58528.00
2022-10-23T11:31:09.531Z,61728.00
2022-10-23T11:32:05.626Z,54080.00
2022-10-23T11:33:05.934Z,48096.00
2022-10-23T11:34:05.554Z,44512.00
2022-10-23T11:35:05.522Z,40576.00
2022-10-23T11:36:06.780Z,40128.00
2022-10-23T11:37:05.456Z,51744.00
2022-10-23T11:38:26.459Z,56160.00
2022-10-23T11:39:06.598Z,45792.00
2022-10-23T11:40:05.354Z,57632.00
2022-10-23T11:41:05.317Z,50560.00
2022-10-23T11:42:05.291Z,50176.00
2022-10-23T11:43:27.511Z,43392.00
2022-10-23T11:44:05.265Z,31936.00
2022-10-23T11:45:06.637Z,26496.00
2022-10-23T11:46:05.148Z,22240.00
2022-10-23T11:47:05.121Z,20352.00
2022-10-23T11:48:05.088Z,20608.00
2022-10-23T11:49:05.299Z,21728.00
2022-10-23T11:50:05.025Z,25760.00
2022-10-23T11:51:05.378Z,32000.00
2022-10-23T11:52:04.944Z,41184.00
2022-10-23T11:53:19.629Z,31776.00
2022-10-23T11:54:05.168Z,31200.00
2022-10-23T11:55:04.848Z,31904.00
2022-10-23T11:56:04.981Z,30464.00
2022-10-23T11:57:08.002Z,26080.00
2022-10-23T11:58:04.991Z,24864.00
2022-10-23T11:59:25.893Z,24640.00
2022-10-23T12:00:04.672Z,24128.00
2022-10-23T12:01:04.868Z,22592.00
2022-10-23T12:02:04.642Z,20960.00
2022-10-23T12:03:04.758Z,20480.00
2022-10-23T12:04:04.836Z,20928.00
2022-10-23T12:05:04.635Z,21856.00
2022-10-23T12:06:04.464Z,22880.00
2022-10-23T12:07:04.649Z,26784.00
2022-10-23T12:08:04.384Z,27648.00
2022-10-23T12:09:06.708Z,24736.00
2022-10-23T12:10:04.384Z,23968.00
2022-10-23T12:11:04.281Z,22272.00
2022-10-23T12:12:05.500Z,19680.00
2022-10-23T12:13:04.213Z,17152.00
2022-10-23T12:14:04.541Z,15376.00
2022-10-23T12:15:04.165Z,15348.00
2022-10-23T12:16:06.144Z,15596.00
2022-10-23T12:17:04.070Z,15056.00
2022-10-23T12:18:05.383Z,13696.00
2022-10-23T12:19:04.017Z,12356.00
2022-10-23T12:20:10.529Z,11580.00
2022-10-23T12:21:03.914Z,11392.00
2022-10-23T12:22:06.189Z,11632.00
2022-10-23T12:23:03.944Z,12436.00
2022-10-23T12:24:03.803Z,13976.00
2022-10-23T12:25:03.975Z,16024.00
2022-10-23T12:26:03.756Z,19040.00
2022-10-23T12:27:03.973Z,24448.00
2022-10-23T12:28:03.676Z,41920.00
2022-10-23T12:29:03.622Z,41024.00
2022-10-23T12:30:03.589Z,65184.00
2022-10-23T12:31:04.823Z,65312.00
2022-10-23T12:32:03.852Z,61952.00
2022-10-23T12:33:05.657Z,56320.00
2022-10-23T12:34:03.448Z,59328.00
2022-10-23T12:35:03.397Z,50272.00
2022-10-23T12:36:03.627Z,42912.00
2022-10-23T12:37:03.336Z,53120.00